MSC Ingrid — HOHA — position and weather

sailwx.info

Track history (hours):
 
Tides and Currents Weather Stations Pressure Air Temp Water Temp Dewpoint Dewpoint Depression Visibility Wind Speed Wind Dir Waves Ship Positions

MSC Ingrid

Last reported at 2017-Feb-19 16:33 UTC. Time now 2017-Feb-19 16:48 UTC.
Position N 51°22' E 003°54'.

Length 294 m; draft 9 m.

Type: Ship (hazmat cat A). MMSI: 354505000.

Date/timePositionNaut miles runAvg speedWind from/ knotsBaromVisibWave heightAir tempDewpointWater temp
2017-Feb-19 16:33N 51°22' E 003°54'1111.4
2017-Feb-19 15:33N 51°26' E 003°37'1111.4
2017-Feb-19 14:33N 51°24' E 003°19'1211.8
2017-Feb-19 13:33N 51°24' E 003°00'1212.2
2017-Feb-19 12:33N 51°22' E 002°41'1514.9
2017-Feb-19 11:33N 51°18' E 002°18'1918.7
2017-Feb-19 10:33N 51°28' E 001°53'1919.1
2017-Feb-19 09:33N 51°46' E 001°44'1312.9
2017-Feb-19 08:34N 51°56' E 001°30'8 7.7
2017-Feb-19 07:32N 51°58' E 001°18'0 0.0
2017-Feb-19 06:32N 51°58' E 001°18'0 0.0
2017-Feb-19 05:32N 51°58' E 001°18'0 0.0
2017-Feb-19 04:32N 51°58' E 001°18'0 0.0
2017-Feb-19 03:32N 51°58' E 001°18'0 0.0
2017-Feb-19 02:32N 51°58' E 001°18'0 0.0
2017-Feb-19 01:32N 51°58' E 001°18'0 0.0
2017-Feb-19 00:32N 51°58' E 001°18'0 0.0
2017-Feb-18 23:32N 51°58' E 001°18'0 0.0
2017-Feb-18 22:32N 51°58' E 001°18'0 0.0
2017-Feb-18 21:32N 51°58' E 001°18'0 0.0
2017-Feb-18 20:32N 51°58' E 001°18'0 0.0
2017-Feb-18 19:32N 51°58' E 001°18'0 0.0
2017-Feb-18 18:32N 51°58' E 001°18'0 0.0
2017-Feb-18 17:32N 51°58' E 001°18'0 0.0
2017-Feb-18 16:32N 51°58' E 001°18'0 0.0
2017-Feb-18 15:32N 51°58' E 001°18'1 1.0
2017-Feb-18 14:33N 51°57' E 001°19'1010.0
2017-Feb-18 13:34N 51°53' E 001°34'6 6.1
2017-Feb-18 12:33N 51°51' E 001°43'3 2.6
2017-Feb-18 11:33N 51°54' E 001°42'0 0.1
2017-Feb-18 10:33N 51°54' E 001°42'0 0.0
2017-Feb-18 09:33N 51°54' E 001°42'0 0.0
2017-Feb-18 08:32N 51°54' E 001°42'0 0.0
2017-Feb-18 07:32N 51°54' E 001°42'0 0.0
2017-Feb-18 06:32N 51°54' E 001°42'0 0.0
2017-Feb-18 05:32N 51°54' E 001°42'0 0.1
2017-Feb-18 04:32N 51°54' E 001°42'0 0.3
2017-Feb-18 03:32N 51°54' E 001°42'0 0.0
2017-Feb-18 02:32N 51°54' E 001°42'0 0.1
2017-Feb-18 01:32N 51°54' E 001°42'4 4.4
2017-Feb-18 00:33N 51°51' E 001°47'1414.3
2017-Feb-17 23:33N 51°54' E 002°09'2019.4
2017-Feb-17 22:31N 51°59' E 002°41'2919.7
2017-Feb-17 21:04N 52°04' E 003°27'1019.4
2017-Feb-17 20:34N 52°04' E 003°43'1414.3
2017-Feb-17 19:34N 51°59' E 004°04'1 1.4
2017-Feb-17 18:33N 51°58' E 004°04'0 0.0
2017-Feb-17 17:33N 51°58' E 004°04'0 0.0
2017-Feb-17 16:33N 51°58' E 004°04'0 0.0
2017-Feb-17 15:33N 51°58' E 004°04'0 0.0
2017-Feb-17 14:33N 51°58' E 004°04'0 0.0
2017-Feb-17 13:33N 51°58' E 004°04'0 0.0
2017-Feb-17 12:33N 51°58' E 004°04'0 0.0
2017-Feb-17 11:33N 51°58' E 004°04'0 0.0
2017-Feb-17 10:33N 51°58' E 004°04'0 0.0
2017-Feb-17 09:33N 51°58' E 004°04'0 0.0
2017-Feb-17 08:33N 51°58' E 004°04'0 0.0
2017-Feb-17 07:33N 51°58' E 004°04'0 0.0
2017-Feb-17 06:33N 51°58' E 004°04'0 0.0
2017-Feb-17 05:33N 51°58' E 004°04'0 0.5
2017-Feb-17 04:34N 51°58' E 004°04'8 8.0
2017-Feb-17 03:33N 51°59' E 003°52'9 9.3
2017-Feb-17 02:34N 51°57' E 003°37'5 5.4
2017-Feb-17 01:34N 51°55' E 003°29'0 0.3
2017-Feb-17 00:33N 51°55' E 003°29'5 4.5
2017-Feb-16 23:33N 51°54' E 003°21'6 6.2
2017-Feb-16 22:33N 51°53' E 003°12'9 8.8
2017-Feb-16 21:34N 51°51' E 002°58'1010.4
2017-Feb-16 20:33N 51°47' E 002°42'1111.0
2017-Feb-16 19:33N 51°40' E 002°28'1312.5
2017-Feb-16 18:33N 51°31' E 002°16'1212.3
2017-Feb-16 17:33N 51°19' E 002°08'1515.0
2017-Feb-16 16:33N 51°09' E 001°51'1717.1
2017-Feb-16 15:33N 50°57' E 001°31'1716.4
2017-Feb-16 14:30N 50°41' E 001°19'4716.0
2017-Feb-16 11:33N 50°20' E 000°13'1817.6
2017-Feb-16 10:33N 50°17' W 000°14'1717.4
2017-Feb-16 09:33N 50°13' W 000°40'1716.4
2017-Feb-16 08:33N 50°08' W 001°05'1515.2
2017-Feb-16 07:32N 50°04' W 001°28'1313.7
2017-Feb-16 06:33N 50°01' W 001°48'2612.6
2017-Feb-16 04:30N 49°55' W 002°28'1313.5
2017-Feb-16 03:33N 49°51' W 002°47'1414.3
2017-Feb-16 02:34N 49°45' W 003°07'1514.8
2017-Feb-16 01:34N 49°39' W 003°28'1515.0
2017-Feb-16 00:33N 49°32' W 003°48'2015.2
2017-Feb-15 23:16N 49°21' W 004°13'1215.5
2017-Feb-15 22:31N 49°14' W 004°27'2316.1
2017-Feb-15 21:05N 49°02' W 004°58'916.6
2017-Feb-15 20:34N 48°58' W 005°09'1717.1
2017-Feb-15 19:33N 48°50' W 005°33'1817.1
2017-Feb-15 18:30N 48°35' W 005°48'57916.4
2017-Feb-14 07:13N 39°23' W 009°51'1218.6
2017-Feb-14 06:33N 39°11' W 009°51'1818.3
2017-Feb-14 05:33N 38°52' W 009°52'1818.1
2017-Feb-14 04:33N 38°34' W 009°49'1717.4
2017-Feb-14 03:33N 38°20' W 009°35'1817.6
2017-Feb-14 02:33N 38°10' W 009°18'1817.9
2017-Feb-14 01:33N 37°58' W 008°60'8 7.6
2017-Feb-14 00:33N 37°56' W 008°51'0 0.0
2017-Feb-13 23:31N 37°56' W 008°51'0 0.0
2017-Feb-13 22:31N 37°56' W 008°51'0 0.0
2017-Feb-13 21:31N 37°56' W 008°51'0 0.0
2017-Feb-13 20:31N 37°56' W 008°51'0 0.0
2017-Feb-13 19:31N 37°56' W 008°51'0 0.0
2017-Feb-13 18:28N 37°56' W 008°51'0 0.0
2017-Feb-13 17:31N 37°56' W 008°51'0 0.0
2017-Feb-13 16:31N 37°56' W 008°51'0 0.0
2017-Feb-13 15:31N 37°56' W 008°51'0 0.0
2017-Feb-13 14:31N 37°56' W 008°51'0 0.0
2017-Feb-13 13:31N 37°56' W 008°51'0 0.0
2017-Feb-13 12:31N 37°56' W 008°51'0 0.0
2017-Feb-13 11:34N 37°56' W 008°51'0 0.1
2017-Feb-13 10:33N 37°56' W 008°51'3 2.5
2017-Feb-13 09:33N 37°53' W 008°51'4 4.0
2017-Feb-13 08:34N 37°50' W 008°53'9 8.9
2017-Feb-13 07:33N 37°42' W 008°58'18815.5
2017-Feb-12 19:27N 35°57' W 005°44'1213.8
2017-Feb-12 18:34N 35°59' W 005°29'1212.3
2017-Feb-12 17:33N 36°02' W 005°14'1211.5
2017-Feb-12 16:32N 36°04' W 004°60'36212.5
2017-Feb-11 11:32N 36°54' E 002°26'3222.3
2017-Feb-11 10:05N 36°59' E 003°06'3621.7
2017-Feb-11 08:27N 37°05' E 003°50'1921.5
2017-Feb-11 07:33N 37°08' E 004°13'2221.6
2017-Feb-11 06:33N 37°11' E 004°40'2221.8
2017-Feb-11 05:33N 37°15' E 005°07'2221.9
2017-Feb-11 04:33N 37°19' E 005°34'40221.1
2017-Feb-10 09:31N 36°32' E 013°53'2121.8
2017-Feb-10 08:33N 36°25' E 014°18'2222.2
2017-Feb-10 07:33N 36°25' E 014°46'  
Track history (hours):
 
Tides and Currents Weather Stations Pressure Air Temp Water Temp Dewpoint Dewpoint Depression Visibility Wind Speed Wind Dir Waves Ship Positions

MSC Ingrid

Last reported at 2017-Feb-19 16:33 UTC. Time now 2017-Feb-19 16:48 UTC.
Position N 51°22' E 003°54'.

Length 294 m; draft 9 m.

Type: Ship (hazmat cat A). MMSI: 354505000.

Date/timePositionNaut miles runAvg speedWind from/ knotsBaromVisibWave heightAir tempDewpointWater temp
2017-Feb-19 16:33N 51°22' E 003°54'1111.4
2017-Feb-19 15:33N 51°26' E 003°37'1111.4
2017-Feb-19 14:33N 51°24' E 003°19'1211.8
2017-Feb-19 13:33N 51°24' E 003°00'1212.2
2017-Feb-19 12:33N 51°22' E 002°41'1514.9
2017-Feb-19 11:33N 51°18' E 002°18'1918.7
2017-Feb-19 10:33N 51°28' E 001°53'1919.1
2017-Feb-19 09:33N 51°46' E 001°44'1312.9
2017-Feb-19 08:34N 51°56' E 001°30'8 7.7
2017-Feb-19 07:32N 51°58' E 001°18'0 0.0
2017-Feb-19 06:32N 51°58' E 001°18'0 0.0
2017-Feb-19 05:32N 51°58' E 001°18'0 0.0
2017-Feb-19 04:32N 51°58' E 001°18'0 0.0
2017-Feb-19 03:32N 51°58' E 001°18'0 0.0
2017-Feb-19 02:32N 51°58' E 001°18'0 0.0
2017-Feb-19 01:32N 51°58' E 001°18'0 0.0
2017-Feb-19 00:32N 51°58' E 001°18'0 0.0
2017-Feb-18 23:32N 51°58' E 001°18'0 0.0
2017-Feb-18 22:32N 51°58' E 001°18'0 0.0
2017-Feb-18 21:32N 51°58' E 001°18'0 0.0
2017-Feb-18 20:32N 51°58' E 001°18'0 0.0
2017-Feb-18 19:32N 51°58' E 001°18'0 0.0
2017-Feb-18 18:32N 51°58' E 001°18'0 0.0
2017-Feb-18 17:32N 51°58' E 001°18'0 0.0
2017-Feb-18 16:32N 51°58' E 001°18'0 0.0
2017-Feb-18 15:32N 51°58' E 001°18'1 1.0
2017-Feb-18 14:33N 51°57' E 001°19'1010.0
2017-Feb-18 13:34N 51°53' E 001°34'6 6.1
2017-Feb-18 12:33N 51°51' E 001°43'3 2.6
2017-Feb-18 11:33N 51°54' E 001°42'0 0.1
2017-Feb-18 10:33N 51°54' E 001°42'0 0.0
2017-Feb-18 09:33N 51°54' E 001°42'0 0.0
2017-Feb-18 08:32N 51°54' E 001°42'0 0.0
2017-Feb-18 07:32N 51°54' E 001°42'0 0.0
2017-Feb-18 06:32N 51°54' E 001°42'0 0.0
2017-Feb-18 05:32N 51°54' E 001°42'0 0.1
2017-Feb-18 04:32N 51°54' E 001°42'0 0.3
2017-Feb-18 03:32N 51°54' E 001°42'0 0.0
2017-Feb-18 02:32N 51°54' E 001°42'0 0.1
2017-Feb-18 01:32N 51°54' E 001°42'4 4.4
2017-Feb-18 00:33N 51°51' E 001°47'1414.3
2017-Feb-17 23:33N 51°54' E 002°09'2019.4
2017-Feb-17 22:31N 51°59' E 002°41'2919.7
2017-Feb-17 21:04N 52°04' E 003°27'1019.4
2017-Feb-17 20:34N 52°04' E 003°43'1414.3
2017-Feb-17 19:34N 51°59' E 004°04'1 1.4
2017-Feb-17 18:33N 51°58' E 004°04'0 0.0
2017-Feb-17 17:33N 51°58' E 004°04'0 0.0
2017-Feb-17 16:33N 51°58' E 004°04'0 0.0
2017-Feb-17 15:33N 51°58' E 004°04'0 0.0
2017-Feb-17 14:33N 51°58' E 004°04'0 0.0
2017-Feb-17 13:33N 51°58' E 004°04'0 0.0
2017-Feb-17 12:33N 51°58' E 004°04'0 0.0
2017-Feb-17 11:33N 51°58' E 004°04'0 0.0
2017-Feb-17 10:33N 51°58' E 004°04'0 0.0
2017-Feb-17 09:33N 51°58' E 004°04'0 0.0
2017-Feb-17 08:33N 51°58' E 004°04'0 0.0
2017-Feb-17 07:33N 51°58' E 004°04'0 0.0
2017-Feb-17 06:33N 51°58' E 004°04'0 0.0
2017-Feb-17 05:33N 51°58' E 004°04'0 0.5
2017-Feb-17 04:34N 51°58' E 004°04'8 8.0
2017-Feb-17 03:33N 51°59' E 003°52'9 9.3
2017-Feb-17 02:34N 51°57' E 003°37'5 5.4
2017-Feb-17 01:34N 51°55' E 003°29'0 0.3
2017-Feb-17 00:33N 51°55' E 003°29'5 4.5
2017-Feb-16 23:33N 51°54' E 003°21'6 6.2
2017-Feb-16 22:33N 51°53' E 003°12'9 8.8
2017-Feb-16 21:34N 51°51' E 002°58'1010.4
2017-Feb-16 20:33N 51°47' E 002°42'1111.0
2017-Feb-16 19:33N 51°40' E 002°28'1312.5
2017-Feb-16 18:33N 51°31' E 002°16'1212.3
2017-Feb-16 17:33N 51°19' E 002°08'1515.0
2017-Feb-16 16:33N 51°09' E 001°51'1717.1
2017-Feb-16 15:33N 50°57' E 001°31'1716.4
2017-Feb-16 14:30N 50°41' E 001°19'4716.0
2017-Feb-16 11:33N 50°20' E 000°13'1817.6
2017-Feb-16 10:33N 50°17' W 000°14'1717.4
2017-Feb-16 09:33N 50°13' W 000°40'1716.4
2017-Feb-16 08:33N 50°08' W 001°05'1515.2
2017-Feb-16 07:32N 50°04' W 001°28'1313.7
2017-Feb-16 06:33N 50°01' W 001°48'2612.6
2017-Feb-16 04:30N 49°55' W 002°28'1313.5
2017-Feb-16 03:33N 49°51' W 002°47'1414.3
2017-Feb-16 02:34N 49°45' W 003°07'1514.8
2017-Feb-16 01:34N 49°39' W 003°28'1515.0
2017-Feb-16 00:33N 49°32' W 003°48'2015.2
2017-Feb-15 23:16N 49°21' W 004°13'1215.5
2017-Feb-15 22:31N 49°14' W 004°27'2316.1
2017-Feb-15 21:05N 49°02' W 004°58'916.6
2017-Feb-15 20:34N 48°58' W 005°09'1717.1
2017-Feb-15 19:33N 48°50' W 005°33'1817.1
2017-Feb-15 18:30N 48°35' W 005°48'57916.4
2017-Feb-14 07:13N 39°23' W 009°51'1218.6
2017-Feb-14 06:33N 39°11' W 009°51'1818.3
2017-Feb-14 05:33N 38°52' W 009°52'1818.1
2017-Feb-14 04:33N 38°34' W 009°49'1717.4
2017-Feb-14 03:33N 38°20' W 009°35'1817.6
2017-Feb-14 02:33N 38°10' W 009°18'1817.9
2017-Feb-14 01:33N 37°58' W 008°60'8 7.6
2017-Feb-14 00:33N 37°56' W 008°51'0 0.0
2017-Feb-13 23:31N 37°56' W 008°51'0 0.0
2017-Feb-13 22:31N 37°56' W 008°51'0 0.0
2017-Feb-13 21:31N 37°56' W 008°51'0 0.0
2017-Feb-13 20:31N 37°56' W 008°51'0 0.0
2017-Feb-13 19:31N 37°56' W 008°51'0 0.0
2017-Feb-13 18:28N 37°56' W 008°51'0 0.0
2017-Feb-13 17:31N 37°56' W 008°51'0 0.0
2017-Feb-13 16:31N 37°56' W 008°51'0 0.0
2017-Feb-13 15:31N 37°56' W 008°51'0 0.0
2017-Feb-13 14:31N 37°56' W 008°51'0 0.0
2017-Feb-13 13:31N 37°56' W 008°51'0 0.0
2017-Feb-13 12:31N 37°56' W 008°51'0 0.0
2017-Feb-13 11:34N 37°56' W 008°51'0 0.1
2017-Feb-13 10:33N 37°56' W 008°51'3 2.5
2017-Feb-13 09:33N 37°53' W 008°51'4 4.0
2017-Feb-13 08:34N 37°50' W 008°53'9 8.9
2017-Feb-13 07:33N 37°42' W 008°58'18815.5
2017-Feb-12 19:27N 35°57' W 005°44'1213.8
2017-Feb-12 18:34N 35°59' W 005°29'1212.3
2017-Feb-12 17:33N 36°02' W 005°14'1211.5
2017-Feb-12 16:32N 36°04' W 004°60'36212.5
2017-Feb-11 11:32N 36°54' E 002°26'3222.3
2017-Feb-11 10:05N 36°59' E 003°06'3621.7
2017-Feb-11 08:27N 37°05' E 003°50'1921.5
2017-Feb-11 07:33N 37°08' E 004°13'2221.6
2017-Feb-11 06:33N 37°11' E 004°40'2221.8
2017-Feb-11 05:33N 37°15' E 005°07'2221.9
2017-Feb-11 04:33N 37°19' E 005°34'40221.1
2017-Feb-10 09:31N 36°32' E 013°53'2121.8
2017-Feb-10 08:33N 36°25' E 014°18'2222.2
2017-Feb-10 07:33N 36°25' E 014°46'  

Dump ship's entire track history